sensor_id;sensor_type;location;lat;lon;timestamp;P1;durP1;ratioP1;P2;durP2;ratioP2
15216;SDS011;7711;46.634;14.318;2022-12-28T00:01:53;25.00;;;15.53;;
15216;SDS011;7711;46.634;14.318;2022-12-28T00:04:20;30.13;;;15.80;;
15216;SDS011;7711;46.634;14.318;2022-12-28T00:06:48;29.60;;;16.80;;
15216;SDS011;7711;46.634;14.318;2022-12-28T00:09:17;31.73;;;16.80;;
15216;SDS011;7711;46.634;14.318;2022-12-28T00:11:44;27.90;;;15.53;;
15216;SDS011;7711;46.634;14.318;2022-12-28T00:14:11;41.80;;;17.63;;
15216;SDS011;7711;46.634;14.318;2022-12-28T00:16:39;28.73;;;16.97;;
15216;SDS011;7711;46.634;14.318;2022-12-28T00:19:09;27.87;;;16.30;;
15216;SDS011;7711;46.634;14.318;2022-12-28T00:21:37;21.53;;;12.97;;
15216;SDS011;7711;46.634;14.318;2022-12-28T00:24:06;21.73;;;13.67;;
15216;SDS011;7711;46.634;14.318;2022-12-28T00:26:34;19.03;;;12.93;;
15216;SDS011;7711;46.634;14.318;2022-12-28T00:29:01;16.77;;;11.37;;
15216;SDS011;7711;46.634;14.318;2022-12-28T00:31:28;14.90;;;10.90;;
15216;SDS011;7711;46.634;14.318;2022-12-28T00:33:55;10.53;;;8.53;;
15216;SDS011;7711;46.634;14.318;2022-12-28T00:36:23;10.73;;;8.80;;
15216;SDS011;7711;46.634;14.318;2022-12-28T00:38:50;13.53;;;9.67;;
15216;SDS011;7711;46.634;14.318;2022-12-28T00:41:19;11.70;;;8.83;;
15216;SDS011;7711;46.634;14.318;2022-12-28T00:43:46;12.00;;;9.17;;
15216;SDS011;7711;46.634;14.318;2022-12-28T00:46:13;12.87;;;9.63;;
15216;SDS011;7711;46.634;14.318;2022-12-28T00:48:41;12.47;;;8.70;;
15216;SDS011;7711;46.634;14.318;2022-12-28T00:51:10;11.30;;;9.00;;
15216;SDS011;7711;46.634;14.318;2022-12-28T00:53:39;11.67;;;8.30;;
15216;SDS011;7711;46.634;14.318;2022-12-28T00:56:06;11.20;;;9.30;;
15216;SDS011;7711;46.634;14.318;2022-12-28T00:58:36;10.87;;;9.03;;
15216;SDS011;7711;46.634;14.318;2022-12-28T01:01:04;10.97;;;8.43;;
15216;SDS011;7711;46.634;14.318;2022-12-28T01:03:32;11.03;;;8.70;;
15216;SDS011;7711;46.634;14.318;2022-12-28T01:05:59;10.47;;;8.10;;
15216;SDS011;7711;46.634;14.318;2022-12-28T01:08:31;10.77;;;8.43;;
15216;SDS011;7711;46.634;14.318;2022-12-28T01:10:58;13.60;;;9.93;;
15216;SDS011;7711;46.634;14.318;2022-12-28T01:13:25;14.53;;;10.37;;
15216;SDS011;7711;46.634;14.318;2022-12-28T01:15:53;17.13;;;11.33;;
15216;SDS011;7711;46.634;14.318;2022-12-28T01:18:20;16.07;;;11.30;;
15216;SDS011;7711;46.634;14.318;2022-12-28T01:20:48;18.63;;;12.73;;
15216;SDS011;7711;46.634;14.318;2022-12-28T01:23:15;19.40;;;12.13;;
15216;SDS011;7711;46.634;14.318;2022-12-28T01:25:42;20.20;;;12.17;;
15216;SDS011;7711;46.634;14.318;2022-12-28T01:28:09;17.83;;;12.00;;
15216;SDS011;7711;46.634;14.318;2022-12-28T01:30:36;19.00;;;12.63;;
15216;SDS011;7711;46.634;14.318;2022-12-28T01:33:05;25.20;;;13.70;;
15216;SDS011;7711;46.634;14.318;2022-12-28T01:35:32;22.73;;;13.03;;
15216;SDS011;7711;46.634;14.318;2022-12-28T01:37:59;18.90;;;12.43;;
15216;SDS011;7711;46.634;14.318;2022-12-28T01:40:26;18.70;;;12.10;;
15216;SDS011;7711;46.634;14.318;2022-12-28T01:42:53;18.43;;;11.10;;
15216;SDS011;7711;46.634;14.318;2022-12-28T01:45:21;16.90;;;11.70;;
15216;SDS011;7711;46.634;14.318;2022-12-28T01:47:48;16.63;;;10.50;;
15216;SDS011;7711;46.634;14.318;2022-12-28T01:50:21;17.47;;;11.70;;
15216;SDS011;7711;46.634;14.318;2022-12-28T01:52:52;15.80;;;11.47;;
15216;SDS011;7711;46.634;14.318;2022-12-28T01:55:23;14.20;;;11.23;;
15216;SDS011;7711;46.634;14.318;2022-12-28T01:57:54;15.70;;;11.23;;
15216;SDS011;7711;46.634;14.318;2022-12-28T02:00:24;16.77;;;11.30;;
15216;SDS011;7711;46.634;14.318;2022-12-28T02:02:52;16.90;;;12.13;;
15216;SDS011;7711;46.634;14.318;2022-12-28T02:05:23;66.73;;;16.60;;
15216;SDS011;7711;46.634;14.318;2022-12-28T02:07:55;36.47;;;14.73;;
15216;SDS011;7711;46.634;14.318;2022-12-28T02:10:27;18.70;;;12.63;;
15216;SDS011;7711;46.634;14.318;2022-12-28T02:12:56;22.83;;;14.23;;
15216;SDS011;7711;46.634;14.318;2022-12-28T02:15:25;27.23;;;14.57;;
15216;SDS011;7711;46.634;14.318;2022-12-28T02:17:53;23.07;;;14.20;;
15216;SDS011;7711;46.634;14.318;2022-12-28T02:20:20;78.40;;;16.90;;
15216;SDS011;7711;46.634;14.318;2022-12-28T02:23:02;38.97;;;15.50;;
15216;SDS011;7711;46.634;14.318;2022-12-28T02:25:59;95.83;;;18.03;;
15216;SDS011;7711;46.634;14.318;2022-12-28T02:29:04;88.03;;;20.40;;
15216;SDS011;7711;46.634;14.318;2022-12-28T02:31:40;38.63;;;16.33;;
15216;SDS011;7711;46.634;14.318;2022-12-28T02:34:13;97.23;;;21.07;;
15216;SDS011;7711;46.634;14.318;2022-12-28T02:36:45;35.10;;;15.40;;
15216;SDS011;7711;46.634;14.318;2022-12-28T02:39:18;28.33;;;14.73;;
15216;SDS011;7711;46.634;14.318;2022-12-28T02:41:48;65.13;;;17.30;;
15216;SDS011;7711;46.634;14.318;2022-12-28T02:44:18;53.80;;;16.50;;
15216;SDS011;7711;46.634;14.318;2022-12-28T02:46:59;89.60;;;19.13;;
15216;SDS011;7711;46.634;14.318;2022-12-28T02:49:44;32.20;;;14.87;;
15216;SDS011;7711;46.634;14.318;2022-12-28T02:52:31;21.23;;;13.10;;
15216;SDS011;7711;46.634;14.318;2022-12-28T02:55:09;24.77;;;13.60;;
15216;SDS011;7711;46.634;14.318;2022-12-28T02:58:06;27.60;;;14.37;;
15216;SDS011;7711;46.634;14.318;2022-12-28T03:00:50;23.47;;;13.30;;
15216;SDS011;7711;46.634;14.318;2022-12-28T03:03:27;29.43;;;15.30;;
15216;SDS011;7711;46.634;14.318;2022-12-28T03:06:01;25.53;;;13.00;;
15216;SDS011;7711;46.634;14.318;2022-12-28T03:08:54;23.70;;;13.77;;
15216;SDS011;7711;46.634;14.318;2022-12-28T03:11:30;19.77;;;12.53;;
15216;SDS011;7711;46.634;14.318;2022-12-28T03:14:05;23.23;;;12.20;;
15216;SDS011;7711;46.634;14.318;2022-12-28T03:16:37;16.80;;;10.73;;
15216;SDS011;7711;46.634;14.318;2022-12-28T03:19:20;18.50;;;11.30;;
15216;SDS011;7711;46.634;14.318;2022-12-28T03:22:09;16.93;;;10.50;;
15216;SDS011;7711;46.634;14.318;2022-12-28T03:24:56;13.87;;;9.73;;
15216;SDS011;7711;46.634;14.318;2022-12-28T03:27:43;15.90;;;10.40;;
15216;SDS011;7711;46.634;14.318;2022-12-28T03:30:29;22.57;;;11.87;;
15216;SDS011;7711;46.634;14.318;2022-12-28T03:33:18;26.13;;;10.30;;
15216;SDS011;7711;46.634;14.318;2022-12-28T03:35:48;21.50;;;10.20;;
15216;SDS011;7711;46.634;14.318;2022-12-28T03:38:24;26.67;;;10.27;;
15216;SDS011;7711;46.634;14.318;2022-12-28T03:40:58;20.80;;;10.23;;
15216;SDS011;7711;46.634;14.318;2022-12-28T03:43:33;31.07;;;11.63;;
15216;SDS011;7711;46.634;14.318;2022-12-28T03:46:05;38.10;;;10.17;;
15216;SDS011;7711;46.634;14.318;2022-12-28T03:48:42;24.47;;;10.40;;
15216;SDS011;7711;46.634;14.318;2022-12-28T03:51:10;67.87;;;13.23;;
15216;SDS011;7711;46.634;14.318;2022-12-28T03:53:40;68.23;;;12.67;;
15216;SDS011;7711;46.634;14.318;2022-12-28T03:56:09;43.10;;;11.17;;
15216;SDS011;7711;46.634;14.318;2022-12-28T03:58:38;75.57;;;14.73;;
15216;SDS011;7711;46.634;14.318;2022-12-28T04:01:05;19.77;;;10.47;;
15216;SDS011;7711;46.634;14.318;2022-12-28T04:03:32;17.60;;;9.97;;
15216;SDS011;7711;46.634;14.318;2022-12-28T04:06:01;37.43;;;11.33;;
15216;SDS011;7711;46.634;14.318;2022-12-28T04:08:28;39.43;;;11.40;;
15216;SDS011;7711;46.634;14.318;2022-12-28T04:10:57;36.57;;;12.83;;
15216;SDS011;7711;46.634;14.318;2022-12-28T04:13:27;19.37;;;11.00;;
15216;SDS011;7711;46.634;14.318;2022-12-28T04:15:55;39.97;;;12.23;;
15216;SDS011;7711;46.634;14.318;2022-12-28T04:18:23;63.63;;;13.40;;
15216;SDS011;7711;46.634;14.318;2022-12-28T04:20:50;43.80;;;12.30;;
15216;SDS011;7711;46.634;14.318;2022-12-28T04:23:19;50.00;;;12.90;;
15216;SDS011;7711;46.634;14.318;2022-12-28T04:25:56;40.40;;;12.47;;
15216;SDS011;7711;46.634;14.318;2022-12-28T04:28:25;45.33;;;12.67;;
15216;SDS011;7711;46.634;14.318;2022-12-28T04:30:52;21.43;;;11.60;;
15216;SDS011;7711;46.634;14.318;2022-12-28T04:33:19;47.20;;;13.13;;
15216;SDS011;7711;46.634;14.318;2022-12-28T04:35:47;39.27;;;13.00;;
15216;SDS011;7711;46.634;14.318;2022-12-28T04:38:14;30.57;;;11.60;;
15216;SDS011;7711;46.634;14.318;2022-12-28T04:40:43;40.20;;;12.43;;
15216;SDS011;7711;46.634;14.318;2022-12-28T04:43:10;35.70;;;12.97;;
15216;SDS011;7711;46.634;14.318;2022-12-28T04:45:37;37.40;;;13.03;;
15216;SDS011;7711;46.634;14.318;2022-12-28T04:48:04;31.30;;;12.60;;
15216;SDS011;7711;46.634;14.318;2022-12-28T04:50:31;36.63;;;15.70;;
15216;SDS011;7711;46.634;14.318;2022-12-28T04:52:59;39.77;;;17.37;;
15216;SDS011;7711;46.634;14.318;2022-12-28T04:55:26;40.50;;;15.40;;
15216;SDS011;7711;46.634;14.318;2022-12-28T04:57:54;30.60;;;12.90;;
15216;SDS011;7711;46.634;14.318;2022-12-28T05:00:21;48.27;;;14.43;;
15216;SDS011;7711;46.634;14.318;2022-12-28T05:02:49;32.67;;;12.93;;
15216;SDS011;7711;46.634;14.318;2022-12-28T05:05:16;23.40;;;12.03;;
15216;SDS011;7711;46.634;14.318;2022-12-28T05:07:43;23.33;;;11.60;;
15216;SDS011;7711;46.634;14.318;2022-12-28T05:10:10;28.80;;;12.23;;
15216;SDS011;7711;46.634;14.318;2022-12-28T05:12:37;19.10;;;11.30;;
15216;SDS011;7711;46.634;14.318;2022-12-28T05:15:07;26.63;;;12.20;;
15216;SDS011;7711;46.634;14.318;2022-12-28T05:17:34;26.67;;;11.97;;
15216;SDS011;7711;46.634;14.318;2022-12-28T05:20:02;19.00;;;11.70;;
15216;SDS011;7711;46.634;14.318;2022-12-28T05:22:29;25.23;;;12.67;;
15216;SDS011;7711;46.634;14.318;2022-12-28T05:24:57;24.13;;;12.50;;
15216;SDS011;7711;46.634;14.318;2022-12-28T05:27:24;18.80;;;11.67;;
15216;SDS011;7711;46.634;14.318;2022-12-28T05:29:51;25.97;;;12.27;;
15216;SDS011;7711;46.634;14.318;2022-12-28T05:32:20;22.83;;;12.40;;
15216;SDS011;7711;46.634;14.318;2022-12-28T05:34:47;21.23;;;11.97;;
15216;SDS011;7711;46.634;14.318;2022-12-28T05:37:14;27.37;;;12.63;;
15216;SDS011;7711;46.634;14.318;2022-12-28T05:39:41;21.07;;;12.73;;
15216;SDS011;7711;46.634;14.318;2022-12-28T05:42:09;21.70;;;11.77;;
15216;SDS011;7711;46.634;14.318;2022-12-28T05:44:36;20.13;;;12.40;;
15216;SDS011;7711;46.634;14.318;2022-12-28T05:47:03;22.07;;;12.63;;
15216;SDS011;7711;46.634;14.318;2022-12-28T05:49:31;19.93;;;12.03;;
15216;SDS011;7711;46.634;14.318;2022-12-28T05:51:59;25.43;;;12.30;;
15216;SDS011;7711;46.634;14.318;2022-12-28T05:54:26;21.00;;;13.13;;
15216;SDS011;7711;46.634;14.318;2022-12-28T05:56:53;20.40;;;12.40;;
15216;SDS011;7711;46.634;14.318;2022-12-28T05:59:20;25.27;;;13.20;;
15216;SDS011;7711;46.634;14.318;2022-12-28T06:01:47;21.07;;;12.57;;
15216;SDS011;7711;46.634;14.318;2022-12-28T06:04:15;27.10;;;12.97;;
15216;SDS011;7711;46.634;14.318;2022-12-28T06:06:45;22.57;;;13.47;;
15216;SDS011;7711;46.634;14.318;2022-12-28T06:09:13;25.70;;;14.07;;
15216;SDS011;7711;46.634;14.318;2022-12-28T06:11:41;22.67;;;13.03;;
15216;SDS011;7711;46.634;14.318;2022-12-28T06:14:08;26.60;;;14.53;;
15216;SDS011;7711;46.634;14.318;2022-12-28T06:16:35;24.77;;;14.23;;
15216;SDS011;7711;46.634;14.318;2022-12-28T06:19:04;25.33;;;14.90;;
15216;SDS011;7711;46.634;14.318;2022-12-28T06:21:34;25.97;;;14.43;;
15216;SDS011;7711;46.634;14.318;2022-12-28T06:24:04;26.37;;;14.57;;
15216;SDS011;7711;46.634;14.318;2022-12-28T06:26:33;25.10;;;14.07;;
15216;SDS011;7711;46.634;14.318;2022-12-28T06:29:01;35.00;;;17.33;;
15216;SDS011;7711;46.634;14.318;2022-12-28T06:31:29;25.07;;;13.93;;
15216;SDS011;7711;46.634;14.318;2022-12-28T06:33:58;75.37;;;14.20;;
15216;SDS011;7711;46.634;14.318;2022-12-28T06:36:27;21.83;;;12.20;;
15216;SDS011;7711;46.634;14.318;2022-12-28T06:38:56;32.50;;;13.53;;
15216;SDS011;7711;46.634;14.318;2022-12-28T06:41:25;54.27;;;14.30;;
15216;SDS011;7711;46.634;14.318;2022-12-28T06:43:53;36.17;;;13.90;;
15216;SDS011;7711;46.634;14.318;2022-12-28T06:46:21;56.40;;;15.43;;
15216;SDS011;7711;46.634;14.318;2022-12-28T06:48:50;36.87;;;14.50;;
15216;SDS011;7711;46.634;14.318;2022-12-28T06:51:18;30.07;;;13.67;;
15216;SDS011;7711;46.634;14.318;2022-12-28T06:53:46;28.73;;;13.57;;
15216;SDS011;7711;46.634;14.318;2022-12-28T06:56:15;22.13;;;13.67;;
15216;SDS011;7711;46.634;14.318;2022-12-28T06:58:45;44.30;;;14.50;;
15216;SDS011;7711;46.634;14.318;2022-12-28T07:01:14;34.33;;;13.87;;
15216;SDS011;7711;46.634;14.318;2022-12-28T07:03:44;57.83;;;14.83;;
15216;SDS011;7711;46.634;14.318;2022-12-28T07:06:12;48.90;;;15.80;;
15216;SDS011;7711;46.634;14.318;2022-12-28T07:08:41;41.07;;;14.30;;
15216;SDS011;7711;46.634;14.318;2022-12-28T07:11:10;27.50;;;13.97;;
15216;SDS011;7711;46.634;14.318;2022-12-28T07:13:38;50.40;;;16.30;;
15216;SDS011;7711;46.634;14.318;2022-12-28T07:16:09;67.87;;;16.57;;
15216;SDS011;7711;46.634;14.318;2022-12-28T07:18:37;46.73;;;17.33;;
15216;SDS011;7711;46.634;14.318;2022-12-28T07:21:06;47.30;;;17.70;;
15216;SDS011;7711;46.634;14.318;2022-12-28T07:23:35;46.60;;;17.63;;
15216;SDS011;7711;46.634;14.318;2022-12-28T07:26:03;30.43;;;15.90;;
15216;SDS011;7711;46.634;14.318;2022-12-28T07:28:32;26.83;;;14.60;;
15216;SDS011;7711;46.634;14.318;2022-12-28T07:31:04;33.37;;;14.80;;
15216;SDS011;7711;46.634;14.318;2022-12-28T07:33:34;30.87;;;15.03;;
15216;SDS011;7711;46.634;14.318;2022-12-28T07:36:02;27.43;;;14.77;;
15216;SDS011;7711;46.634;14.318;2022-12-28T07:38:30;35.47;;;14.87;;
15216;SDS011;7711;46.634;14.318;2022-12-28T07:41:01;27.23;;;13.90;;
15216;SDS011;7711;46.634;14.318;2022-12-28T07:43:28;33.43;;;14.90;;
15216;SDS011;7711;46.634;14.318;2022-12-28T07:46:00;33.57;;;14.87;;
15216;SDS011;7711;46.634;14.318;2022-12-28T07:48:28;28.87;;;14.53;;
15216;SDS011;7711;46.634;14.318;2022-12-28T07:51:05;30.13;;;14.27;;
15216;SDS011;7711;46.634;14.318;2022-12-28T07:53:34;27.37;;;13.57;;
15216;SDS011;7711;46.634;14.318;2022-12-28T07:56:02;23.87;;;13.73;;
15216;SDS011;7711;46.634;14.318;2022-12-28T07:58:30;24.57;;;13.13;;
15216;SDS011;7711;46.634;14.318;2022-12-28T08:01:05;20.47;;;12.80;;
15216;SDS011;7711;46.634;14.318;2022-12-28T08:03:33;20.43;;;12.13;;
15216;SDS011;7711;46.634;14.318;2022-12-28T08:06:02;26.33;;;12.30;;
15216;SDS011;7711;46.634;14.318;2022-12-28T08:08:33;15.60;;;11.87;;
15216;SDS011;7711;46.634;14.318;2022-12-28T08:11:01;20.63;;;12.43;;
15216;SDS011;7711;46.634;14.318;2022-12-28T08:13:30;20.27;;;12.50;;
15216;SDS011;7711;46.634;14.318;2022-12-28T08:15:58;20.50;;;12.00;;
15216;SDS011;7711;46.634;14.318;2022-12-28T08:18:25;28.07;;;13.30;;
15216;SDS011;7711;46.634;14.318;2022-12-28T08:20:53;18.03;;;12.00;;
15216;SDS011;7711;46.634;14.318;2022-12-28T08:23:22;18.40;;;12.10;;
15216;SDS011;7711;46.634;14.318;2022-12-28T08:25:49;27.13;;;17.57;;
15216;SDS011;7711;46.634;14.318;2022-12-28T08:28:16;21.40;;;13.40;;
15216;SDS011;7711;46.634;14.318;2022-12-28T08:30:43;34.57;;;15.10;;
15216;SDS011;7711;46.634;14.318;2022-12-28T08:33:11;24.87;;;15.03;;
15216;SDS011;7711;46.634;14.318;2022-12-28T08:35:38;34.77;;;18.07;;
15216;SDS011;7711;46.634;14.318;2022-12-28T08:38:05;42.23;;;17.00;;
15216;SDS011;7711;46.634;14.318;2022-12-28T08:40:34;43.20;;;16.23;;
15216;SDS011;7711;46.634;14.318;2022-12-28T08:43:01;24.30;;;14.47;;
15216;SDS011;7711;46.634;14.318;2022-12-28T08:45:28;29.83;;;15.53;;
15216;SDS011;7711;46.634;14.318;2022-12-28T08:47:55;25.03;;;13.93;;
15216;SDS011;7711;46.634;14.318;2022-12-28T08:50:23;43.27;;;15.27;;
15216;SDS011;7711;46.634;14.318;2022-12-28T08:52:50;39.63;;;14.73;;
15216;SDS011;7711;46.634;14.318;2022-12-28T08:55:17;44.90;;;15.20;;
15216;SDS011;7711;46.634;14.318;2022-12-28T08:57:45;30.23;;;14.20;;
15216;SDS011;7711;46.634;14.318;2022-12-28T09:00:13;27.60;;;15.30;;
15216;SDS011;7711;46.634;14.318;2022-12-28T09:02:40;49.60;;;15.23;;
15216;SDS011;7711;46.634;14.318;2022-12-28T09:05:08;31.47;;;14.10;;
15216;SDS011;7711;46.634;14.318;2022-12-28T09:07:35;19.37;;;13.57;;
15216;SDS011;7711;46.634;14.318;2022-12-28T09:10:02;34.27;;;15.03;;
15216;SDS011;7711;46.634;14.318;2022-12-28T09:12:30;32.17;;;14.83;;
15216;SDS011;7711;46.634;14.318;2022-12-28T09:14:59;22.03;;;13.97;;
15216;SDS011;7711;46.634;14.318;2022-12-28T09:17:26;25.70;;;17.77;;
15216;SDS011;7711;46.634;14.318;2022-12-28T09:19:53;25.77;;;15.60;;
15216;SDS011;7711;46.634;14.318;2022-12-28T09:22:20;24.13;;;15.57;;
15216;SDS011;7711;46.634;14.318;2022-12-28T09:24:47;27.47;;;14.90;;
15216;SDS011;7711;46.634;14.318;2022-12-28T09:27:14;31.70;;;16.00;;
15216;SDS011;7711;46.634;14.318;2022-12-28T09:29:41;23.57;;;14.13;;
15216;SDS011;7711;46.634;14.318;2022-12-28T09:32:10;25.50;;;15.27;;
15216;SDS011;7711;46.634;14.318;2022-12-28T09:34:37;23.97;;;14.90;;
15216;SDS011;7711;46.634;14.318;2022-12-28T09:37:04;39.17;;;15.73;;
15216;SDS011;7711;46.634;14.318;2022-12-28T09:39:31;30.40;;;15.63;;
15216;SDS011;7711;46.634;14.318;2022-12-28T09:41:58;37.40;;;15.57;;
15216;SDS011;7711;46.634;14.318;2022-12-28T09:44:47;29.17;;;15.90;;
15216;SDS011;7711;46.634;14.318;2022-12-28T09:47:28;30.73;;;16.27;;
15216;SDS011;7711;46.634;14.318;2022-12-28T09:50:16;24.73;;;14.73;;
15216;SDS011;7711;46.634;14.318;2022-12-28T09:53:02;23.87;;;15.47;;
15216;SDS011;7711;46.634;14.318;2022-12-28T09:55:50;21.00;;;14.57;;
15216;SDS011;7711;46.634;14.318;2022-12-28T09:58:22;23.00;;;15.40;;
15216;SDS011;7711;46.634;14.318;2022-12-28T10:00:50;26.80;;;15.67;;
15216;SDS011;7711;46.634;14.318;2022-12-28T10:03:21;30.47;;;17.03;;
15216;SDS011;7711;46.634;14.318;2022-12-28T10:05:51;41.07;;;20.73;;
15216;SDS011;7711;46.634;14.318;2022-12-28T10:08:20;34.03;;;19.87;;
15216;SDS011;7711;46.634;14.318;2022-12-28T10:10:49;28.70;;;18.87;;
15216;SDS011;7711;46.634;14.318;2022-12-28T10:13:18;25.57;;;16.30;;
15216;SDS011;7711;46.634;14.318;2022-12-28T10:15:47;37.33;;;22.17;;
15216;SDS011;7711;46.634;14.318;2022-12-28T10:18:16;30.60;;;16.17;;
15216;SDS011;7711;46.634;14.318;2022-12-28T10:20:49;25.07;;;15.37;;
15216;SDS011;7711;46.634;14.318;2022-12-28T10:23:17;24.40;;;15.13;;
15216;SDS011;7711;46.634;14.318;2022-12-28T10:25:47;22.07;;;14.53;;
15216;SDS011;7711;46.634;14.318;2022-12-28T10:28:17;23.07;;;15.07;;
15216;SDS011;7711;46.634;14.318;2022-12-28T10:30:48;27.00;;;17.00;;
15216;SDS011;7711;46.634;14.318;2022-12-28T10:33:28;27.97;;;16.43;;
15216;SDS011;7711;46.634;14.318;2022-12-28T10:35:57;25.97;;;16.13;;
15216;SDS011;7711;46.634;14.318;2022-12-28T10:38:26;25.63;;;15.87;;
15216;SDS011;7711;46.634;14.318;2022-12-28T10:40:59;25.30;;;16.23;;
15216;SDS011;7711;46.634;14.318;2022-12-28T10:43:28;27.53;;;16.93;;
15216;SDS011;7711;46.634;14.318;2022-12-28T10:45:58;27.73;;;17.67;;
15216;SDS011;7711;46.634;14.318;2022-12-28T10:48:27;28.20;;;18.83;;
15216;SDS011;7711;46.634;14.318;2022-12-28T10:50:59;24.63;;;16.60;;
15216;SDS011;7711;46.634;14.318;2022-12-28T10:53:39;25.07;;;16.80;;
15216;SDS011;7711;46.634;14.318;2022-12-28T10:56:16;30.97;;;18.73;;
15216;SDS011;7711;46.634;14.318;2022-12-28T10:58:47;29.83;;;18.20;;
15216;SDS011;7711;46.634;14.318;2022-12-28T11:01:16;29.90;;;17.93;;
15216;SDS011;7711;46.634;14.318;2022-12-28T11:03:45;24.17;;;17.30;;
15216;SDS011;7711;46.634;14.318;2022-12-28T11:06:26;23.87;;;17.67;;
15216;SDS011;7711;46.634;14.318;2022-12-28T11:09:02;23.37;;;16.80;;
15216;SDS011;7711;46.634;14.318;2022-12-28T11:11:31;23.10;;;16.67;;
15216;SDS011;7711;46.634;14.318;2022-12-28T11:13:59;23.60;;;16.97;;
15216;SDS011;7711;46.634;14.318;2022-12-28T11:16:30;25.90;;;17.33;;
15216;SDS011;7711;46.634;14.318;2022-12-28T11:19:02;25.87;;;16.70;;
15216;SDS011;7711;46.634;14.318;2022-12-28T11:21:31;26.80;;;17.40;;
15216;SDS011;7711;46.634;14.318;2022-12-28T11:24:00;24.73;;;17.17;;
15216;SDS011;7711;46.634;14.318;2022-12-28T11:26:27;24.37;;;16.63;;
15216;SDS011;7711;46.634;14.318;2022-12-28T11:28:55;23.37;;;17.03;;
15216;SDS011;7711;46.634;14.318;2022-12-28T11:31:23;24.73;;;16.50;;
15216;SDS011;7711;46.634;14.318;2022-12-28T11:33:55;20.57;;;14.97;;
15216;SDS011;7711;46.634;14.318;2022-12-28T11:36:27;18.83;;;14.50;;
15216;SDS011;7711;46.634;14.318;2022-12-28T11:38:59;27.87;;;18.23;;
15216;SDS011;7711;46.634;14.318;2022-12-28T11:42:04;23.77;;;16.57;;
15216;SDS011;7711;46.634;14.318;2022-12-28T11:44:47;24.13;;;16.27;;
15216;SDS011;7711;46.634;14.318;2022-12-28T11:47:20;23.83;;;16.07;;
15216;SDS011;7711;46.634;14.318;2022-12-28T11:52:58;23.37;;;15.50;;
15216;SDS011;7711;46.634;14.318;2022-12-28T11:55:34;24.60;;;17.70;;
15216;SDS011;7711;46.634;14.318;2022-12-28T12:01:40;20.50;;;14.77;;
15216;SDS011;7711;46.634;14.318;2022-12-28T12:07:12;23.17;;;16.73;;
15216;SDS011;7711;46.634;14.318;2022-12-28T12:09:47;22.03;;;15.20;;
15216;SDS011;7711;46.634;14.318;2022-12-28T12:12:34;21.67;;;15.23;;
15216;SDS011;7711;46.634;14.318;2022-12-28T12:15:11;21.90;;;16.00;;
15216;SDS011;7711;46.634;14.318;2022-12-28T12:17:43;21.50;;;16.30;;
15216;SDS011;7711;46.634;14.318;2022-12-28T12:23:18;20.90;;;14.87;;
15216;SDS011;7711;46.634;14.318;2022-12-28T12:25:53;23.33;;;15.63;;
15216;SDS011;7711;46.634;14.318;2022-12-28T12:28:32;25.13;;;17.13;;
15216;SDS011;7711;46.634;14.318;2022-12-28T12:31:03;22.83;;;15.67;;
15216;SDS011;7711;46.634;14.318;2022-12-28T12:33:36;20.43;;;15.60;;
15216;SDS011;7711;46.634;14.318;2022-12-28T12:36:11;20.50;;;15.10;;
15216;SDS011;7711;46.634;14.318;2022-12-28T12:39:01;23.87;;;16.37;;
15216;SDS011;7711;46.634;14.318;2022-12-28T12:41:45;28.37;;;17.00;;
15216;SDS011;7711;46.634;14.318;2022-12-28T12:44:22;26.73;;;17.03;;
15216;SDS011;7711;46.634;14.318;2022-12-28T12:47:19;25.67;;;18.07;;
15216;SDS011;7711;46.634;14.318;2022-12-28T12:50:13;26.40;;;17.90;;
15216;SDS011;7711;46.634;14.318;2022-12-28T12:52:52;27.63;;;18.77;;
15216;SDS011;7711;46.634;14.318;2022-12-28T12:55:28;28.67;;;18.40;;
15216;SDS011;7711;46.634;14.318;2022-12-28T12:58:11;27.77;;;18.97;;
15216;SDS011;7711;46.634;14.318;2022-12-28T13:00:45;25.97;;;18.30;;
15216;SDS011;7711;46.634;14.318;2022-12-28T13:03:30;25.47;;;19.07;;
15216;SDS011;7711;46.634;14.318;2022-12-28T13:06:03;24.93;;;18.37;;
15216;SDS011;7711;46.634;14.318;2022-12-28T13:08:34;25.57;;;18.77;;
15216;SDS011;7711;46.634;14.318;2022-12-28T13:11:06;24.37;;;17.97;;
15216;SDS011;7711;46.634;14.318;2022-12-28T13:13:36;22.97;;;16.63;;
15216;SDS011;7711;46.634;14.318;2022-12-28T13:16:07;26.27;;;17.30;;
15216;SDS011;7711;46.634;14.318;2022-12-28T13:18:36;21.03;;;15.90;;
15216;SDS011;7711;46.634;14.318;2022-12-28T13:21:05;25.53;;;17.67;;
15216;SDS011;7711;46.634;14.318;2022-12-28T13:23:41;25.27;;;18.07;;
15216;SDS011;7711;46.634;14.318;2022-12-28T13:26:09;23.87;;;17.57;;
15216;SDS011;7711;46.634;14.318;2022-12-28T13:28:43;26.23;;;18.73;;
15216;SDS011;7711;46.634;14.318;2022-12-28T13:31:16;25.87;;;18.23;;
15216;SDS011;7711;46.634;14.318;2022-12-28T13:33:52;30.10;;;19.27;;
15216;SDS011;7711;46.634;14.318;2022-12-28T13:36:21;26.57;;;18.77;;
15216;SDS011;7711;46.634;14.318;2022-12-28T13:38:58;25.90;;;18.47;;
15216;SDS011;7711;46.634;14.318;2022-12-28T13:41:29;23.03;;;17.27;;
15216;SDS011;7711;46.634;14.318;2022-12-28T13:47:05;24.93;;;18.60;;
15216;SDS011;7711;46.634;14.318;2022-12-28T13:49:38;22.57;;;17.17;;
15216;SDS011;7711;46.634;14.318;2022-12-28T13:52:09;23.90;;;18.73;;
15216;SDS011;7711;46.634;14.318;2022-12-28T13:54:42;25.60;;;18.33;;
15216;SDS011;7711;46.634;14.318;2022-12-28T13:57:12;25.53;;;18.83;;
15216;SDS011;7711;46.634;14.318;2022-12-28T13:59:43;28.10;;;19.20;;
15216;SDS011;7711;46.634;14.318;2022-12-28T14:02:12;27.10;;;18.57;;
15216;SDS011;7711;46.634;14.318;2022-12-28T14:04:43;29.50;;;19.43;;
15216;SDS011;7711;46.634;14.318;2022-12-28T14:07:11;27.87;;;19.30;;
15216;SDS011;7711;46.634;14.318;2022-12-28T14:09:40;28.27;;;18.87;;
15216;SDS011;7711;46.634;14.318;2022-12-28T14:12:09;28.93;;;20.23;;
15216;SDS011;7711;46.634;14.318;2022-12-28T14:14:37;30.20;;;20.90;;
15216;SDS011;7711;46.634;14.318;2022-12-28T14:17:07;31.83;;;21.37;;
15216;SDS011;7711;46.634;14.318;2022-12-28T14:19:35;32.90;;;20.87;;
15216;SDS011;7711;46.634;14.318;2022-12-28T14:22:03;35.03;;;21.73;;
15216;SDS011;7711;46.634;14.318;2022-12-28T14:24:57;31.33;;;21.13;;
15216;SDS011;7711;46.634;14.318;2022-12-28T14:27:29;31.97;;;21.83;;
15216;SDS011;7711;46.634;14.318;2022-12-28T14:29:57;33.40;;;22.83;;
15216;SDS011;7711;46.634;14.318;2022-12-28T14:32:26;33.53;;;23.00;;
15216;SDS011;7711;46.634;14.318;2022-12-28T14:34:56;33.30;;;21.83;;
15216;SDS011;7711;46.634;14.318;2022-12-28T14:37:27;32.73;;;20.97;;
15216;SDS011;7711;46.634;14.318;2022-12-28T14:39:57;27.60;;;19.10;;
15216;SDS011;7711;46.634;14.318;2022-12-28T14:42:26;30.93;;;20.83;;
15216;SDS011;7711;46.634;14.318;2022-12-28T14:44:54;32.20;;;21.60;;
15216;SDS011;7711;46.634;14.318;2022-12-28T14:47:33;34.50;;;22.63;;
15216;SDS011;7711;46.634;14.318;2022-12-28T14:50:02;30.27;;;20.67;;
15216;SDS011;7711;46.634;14.318;2022-12-28T14:52:41;30.93;;;21.47;;
15216;SDS011;7711;46.634;14.318;2022-12-28T14:55:20;30.13;;;20.57;;
15216;SDS011;7711;46.634;14.318;2022-12-28T14:57:56;32.10;;;21.40;;
15216;SDS011;7711;46.634;14.318;2022-12-28T15:00:28;33.53;;;21.03;;